Аэропорт: Шымкент. Шымкент

ICAO: UAII

METAR:
2021-01-19 11:30:00
UAII 191130Z 26004MPS CAVOK 12/04 Q1014 R28/0///70 NOSIG RMK QFE723/0965
METAR:
2021-01-19 05:07:00
TAF UAII 190507Z 1906/2006 23005MPS 6000 SCT033CB OVC100 TX14/1909Z TN01/2002Z TEMPO 1906/1912 19009G14MPS BKN020CB TEMPO 1912/1924 19010G15MPS 2000 -SHRA BR SCT011 OVC025CB